sensor_id;sensor_type;location;lat;lon;timestamp;P1;durP1;ratioP1;P2;durP2;ratioP2
22778;SDS011;11556;51.194;3.800;2023-07-31T00:00:06;20.48;;;5.30;;
22778;SDS011;11556;51.194;3.800;2023-07-31T00:02:34;16.83;;;4.57;;
22778;SDS011;11556;51.194;3.800;2023-07-31T00:04:59;21.55;;;5.80;;
22778;SDS011;11556;51.194;3.800;2023-07-31T00:07:26;15.73;;;5.25;;
22778;SDS011;11556;51.194;3.800;2023-07-31T00:09:51;23.02;;;5.68;;
22778;SDS011;11556;51.194;3.800;2023-07-31T00:12:18;17.55;;;5.30;;
22778;SDS011;11556;51.194;3.800;2023-07-31T00:14:44;20.20;;;5.93;;
22778;SDS011;11556;51.194;3.800;2023-07-31T00:17:10;15.20;;;5.30;;
22778;SDS011;11556;51.194;3.800;2023-07-31T00:19:36;20.40;;;5.85;;
22778;SDS011;11556;51.194;3.800;2023-07-31T00:22:02;17.83;;;5.97;;
22778;SDS011;11556;51.194;3.800;2023-07-31T00:24:27;22.48;;;6.07;;
22778;SDS011;11556;51.194;3.800;2023-07-31T00:26:53;19.75;;;5.82;;
22778;SDS011;11556;51.194;3.800;2023-07-31T00:29:19;16.55;;;5.55;;
22778;SDS011;11556;51.194;3.800;2023-07-31T00:31:44;18.55;;;5.55;;
22778;SDS011;11556;51.194;3.800;2023-07-31T00:34:10;19.48;;;5.95;;
22778;SDS011;11556;51.194;3.800;2023-07-31T00:36:35;20.77;;;5.32;;
22778;SDS011;11556;51.194;3.800;2023-07-31T00:39:01;17.20;;;5.88;;
22778;SDS011;11556;51.194;3.800;2023-07-31T00:41:26;18.92;;;5.53;;
22778;SDS011;11556;51.194;3.800;2023-07-31T00:43:52;16.48;;;4.85;;
22778;SDS011;11556;51.194;3.800;2023-07-31T00:46:18;20.35;;;6.90;;
22778;SDS011;11556;51.194;3.800;2023-07-31T00:48:44;22.42;;;6.35;;
22778;SDS011;11556;51.194;3.800;2023-07-31T00:51:10;20.42;;;6.18;;
22778;SDS011;11556;51.194;3.800;2023-07-31T00:53:35;17.95;;;5.63;;
22778;SDS011;11556;51.194;3.800;2023-07-31T00:56:01;19.73;;;5.38;;
22778;SDS011;11556;51.194;3.800;2023-07-31T00:58:28;21.23;;;5.53;;
22778;SDS011;11556;51.194;3.800;2023-07-31T01:00:53;21.05;;;5.90;;
22778;SDS011;11556;51.194;3.800;2023-07-31T01:03:19;18.02;;;5.55;;
22778;SDS011;11556;51.194;3.800;2023-07-31T01:11:25;22.38;;;5.80;;
22778;SDS011;11556;51.194;3.800;2023-07-31T01:13:56;16.92;;;5.13;;
22778;SDS011;11556;51.194;3.800;2023-07-31T01:16:22;18.20;;;5.53;;
22778;SDS011;11556;51.194;3.800;2023-07-31T01:18:48;20.05;;;5.35;;
22778;SDS011;11556;51.194;3.800;2023-07-31T01:26:28;17.30;;;5.43;;
22778;SDS011;11556;51.194;3.800;2023-07-31T01:29:02;21.02;;;6.05;;
22778;SDS011;11556;51.194;3.800;2023-07-31T01:31:35;21.70;;;5.38;;
22778;SDS011;11556;51.194;3.800;2023-07-31T01:34:03;18.63;;;5.35;;
22778;SDS011;11556;51.194;3.800;2023-07-31T01:36:30;19.25;;;5.40;;
22778;SDS011;11556;51.194;3.800;2023-07-31T01:39:00;15.68;;;5.15;;
22778;SDS011;11556;51.194;3.800;2023-07-31T01:41:27;19.60;;;6.00;;
22778;SDS011;11556;51.194;3.800;2023-07-31T01:43:52;21.52;;;5.38;;
22778;SDS011;11556;51.194;3.800;2023-07-31T01:46:18;17.05;;;5.70;;
22778;SDS011;11556;51.194;3.800;2023-07-31T01:48:44;16.67;;;5.25;;
22778;SDS011;11556;51.194;3.800;2023-07-31T01:51:09;15.30;;;5.78;;
22778;SDS011;11556;51.194;3.800;2023-07-31T01:53:35;14.13;;;5.63;;
22778;SDS011;11556;51.194;3.800;2023-07-31T01:56:00;22.15;;;5.18;;
22778;SDS011;11556;51.194;3.800;2023-07-31T01:58:26;15.98;;;4.60;;
22778;SDS011;11556;51.194;3.800;2023-07-31T02:00:51;19.48;;;5.05;;
22778;SDS011;11556;51.194;3.800;2023-07-31T02:03:17;15.15;;;4.72;;
22778;SDS011;11556;51.194;3.800;2023-07-31T02:05:46;12.05;;;4.53;;
22778;SDS011;11556;51.194;3.800;2023-07-31T02:08:12;20.02;;;5.18;;
22778;SDS011;11556;51.194;3.800;2023-07-31T02:10:38;14.38;;;4.70;;
22778;SDS011;11556;51.194;3.800;2023-07-31T02:13:04;16.25;;;4.88;;
22778;SDS011;11556;51.194;3.800;2023-07-31T02:15:30;15.15;;;4.95;;
22778;SDS011;11556;51.194;3.800;2023-07-31T02:17:56;18.73;;;4.93;;
22778;SDS011;11556;51.194;3.800;2023-07-31T02:20:21;20.58;;;4.07;;
22778;SDS011;11556;51.194;3.800;2023-07-31T02:22:47;14.07;;;4.53;;
22778;SDS011;11556;51.194;3.800;2023-07-31T02:25:13;17.10;;;4.60;;
22778;SDS011;11556;51.194;3.800;2023-07-31T02:27:38;16.52;;;4.55;;
22778;SDS011;11556;51.194;3.800;2023-07-31T02:30:04;13.48;;;4.63;;
22778;SDS011;11556;51.194;3.800;2023-07-31T02:32:30;10.00;;;4.07;;
22778;SDS011;11556;51.194;3.800;2023-07-31T02:34:56;17.05;;;4.38;;
22778;SDS011;11556;51.194;3.800;2023-07-31T02:37:21;17.10;;;4.43;;
22778;SDS011;11556;51.194;3.800;2023-07-31T02:39:47;16.52;;;4.13;;
22778;SDS011;11556;51.194;3.800;2023-07-31T02:42:13;11.77;;;4.55;;
22778;SDS011;11556;51.194;3.800;2023-07-31T02:44:39;19.15;;;4.90;;
22778;SDS011;11556;51.194;3.800;2023-07-31T02:47:05;18.67;;;5.72;;
22778;SDS011;11556;51.194;3.800;2023-07-31T02:49:30;13.10;;;4.40;;
22778;SDS011;11556;51.194;3.800;2023-07-31T02:51:56;16.40;;;4.63;;
22778;SDS011;11556;51.194;3.800;2023-07-31T02:54:21;15.18;;;4.25;;
22778;SDS011;11556;51.194;3.800;2023-07-31T02:56:47;14.77;;;4.32;;
22778;SDS011;11556;51.194;3.800;2023-07-31T02:59:13;14.25;;;4.38;;
22778;SDS011;11556;51.194;3.800;2023-07-31T03:01:44;13.23;;;4.65;;
22778;SDS011;11556;51.194;3.800;2023-07-31T03:04:09;14.30;;;4.43;;
22778;SDS011;11556;51.194;3.800;2023-07-31T03:06:35;14.32;;;4.15;;
22778;SDS011;11556;51.194;3.800;2023-07-31T03:09:01;10.35;;;4.25;;
22778;SDS011;11556;51.194;3.800;2023-07-31T03:11:26;15.65;;;3.97;;
22778;SDS011;11556;51.194;3.800;2023-07-31T03:13:52;17.80;;;5.03;;
22778;SDS011;11556;51.194;3.800;2023-07-31T03:16:17;12.48;;;4.15;;
22778;SDS011;11556;51.194;3.800;2023-07-31T03:18:43;12.60;;;4.43;;
22778;SDS011;11556;51.194;3.800;2023-07-31T03:21:09;17.90;;;4.65;;
22778;SDS011;11556;51.194;3.800;2023-07-31T03:23:34;13.73;;;4.45;;
22778;SDS011;11556;51.194;3.800;2023-07-31T03:26:00;18.95;;;5.00;;
22778;SDS011;11556;51.194;3.800;2023-07-31T03:28:30;14.75;;;4.80;;
22778;SDS011;11556;51.194;3.800;2023-07-31T03:30:56;14.00;;;4.53;;
22778;SDS011;11556;51.194;3.800;2023-07-31T03:33:21;18.25;;;5.47;;
22778;SDS011;11556;51.194;3.800;2023-07-31T03:35:47;15.30;;;4.93;;
22778;SDS011;11556;51.194;3.800;2023-07-31T03:38:13;14.13;;;4.32;;
22778;SDS011;11556;51.194;3.800;2023-07-31T03:40:39;16.58;;;4.53;;
22778;SDS011;11556;51.194;3.800;2023-07-31T03:43:05;17.40;;;5.32;;
22778;SDS011;11556;51.194;3.800;2023-07-31T03:45:30;14.63;;;5.13;;
22778;SDS011;11556;51.194;3.800;2023-07-31T03:47:56;14.00;;;5.15;;
22778;SDS011;11556;51.194;3.800;2023-07-31T03:50:22;16.13;;;5.38;;
22778;SDS011;11556;51.194;3.800;2023-07-31T03:52:48;19.83;;;5.45;;
22778;SDS011;11556;51.194;3.800;2023-07-31T03:55:13;15.40;;;5.15;;
22778;SDS011;11556;51.194;3.800;2023-07-31T03:57:39;17.05;;;5.35;;
22778;SDS011;11556;51.194;3.800;2023-07-31T04:00:05;18.40;;;5.20;;
22778;SDS011;11556;51.194;3.800;2023-07-31T04:02:31;13.68;;;4.85;;
22778;SDS011;11556;51.194;3.800;2023-07-31T04:04:56;18.58;;;5.32;;
22778;SDS011;11556;51.194;3.800;2023-07-31T04:07:22;17.17;;;5.78;;
22778;SDS011;11556;51.194;3.800;2023-07-31T04:09:47;20.30;;;6.35;;
22778;SDS011;11556;51.194;3.800;2023-07-31T04:12:13;15.32;;;5.78;;
22778;SDS011;11556;51.194;3.800;2023-07-31T04:14:39;16.73;;;5.63;;
22778;SDS011;11556;51.194;3.800;2023-07-31T04:17:04;15.27;;;5.60;;
22778;SDS011;11556;51.194;3.800;2023-07-31T04:19:30;20.98;;;5.85;;
22778;SDS011;11556;51.194;3.800;2023-07-31T04:21:56;25.75;;;6.20;;
22778;SDS011;11556;51.194;3.800;2023-07-31T04:24:21;17.10;;;5.32;;
22778;SDS011;11556;51.194;3.800;2023-07-31T04:26:52;15.20;;;5.65;;
22778;SDS011;11556;51.194;3.800;2023-07-31T04:29:18;13.65;;;5.28;;
22778;SDS011;11556;51.194;3.800;2023-07-31T04:31:44;21.27;;;5.68;;
22778;SDS011;11556;51.194;3.800;2023-07-31T04:34:10;17.23;;;5.70;;
22778;SDS011;11556;51.194;3.800;2023-07-31T04:36:39;23.75;;;7.80;;
22778;SDS011;11556;51.194;3.800;2023-07-31T04:39:04;22.58;;;6.47;;
22778;SDS011;11556;51.194;3.800;2023-07-31T04:41:30;23.42;;;6.07;;
22778;SDS011;11556;51.194;3.800;2023-07-31T04:43:56;12.50;;;5.63;;
22778;SDS011;11556;51.194;3.800;2023-07-31T04:46:21;16.13;;;6.22;;
22778;SDS011;11556;51.194;3.800;2023-07-31T04:48:47;14.80;;;5.35;;
22778;SDS011;11556;51.194;3.800;2023-07-31T04:51:13;14.52;;;5.38;;
22778;SDS011;11556;51.194;3.800;2023-07-31T04:53:38;19.15;;;5.57;;
22778;SDS011;11556;51.194;3.800;2023-07-31T04:56:04;13.75;;;5.97;;
22778;SDS011;11556;51.194;3.800;2023-07-31T04:58:30;15.35;;;5.55;;
22778;SDS011;11556;51.194;3.800;2023-07-31T05:00:55;13.73;;;5.20;;
22778;SDS011;11556;51.194;3.800;2023-07-31T05:03:21;14.88;;;5.90;;
22778;SDS011;11556;51.194;3.800;2023-07-31T05:05:47;12.40;;;5.18;;
22778;SDS011;11556;51.194;3.800;2023-07-31T05:08:12;12.88;;;5.30;;
22778;SDS011;11556;51.194;3.800;2023-07-31T05:10:38;14.05;;;4.70;;
22778;SDS011;11556;51.194;3.800;2023-07-31T05:13:04;14.98;;;5.57;;
22778;SDS011;11556;51.194;3.800;2023-07-31T05:15:30;12.00;;;4.55;;
22778;SDS011;11556;51.194;3.800;2023-07-31T05:17:56;12.13;;;4.93;;
22778;SDS011;11556;51.194;3.800;2023-07-31T05:20:21;9.00;;;4.65;;
22778;SDS011;11556;51.194;3.800;2023-07-31T05:22:47;13.85;;;4.93;;
22778;SDS011;11556;51.194;3.800;2023-07-31T05:25:13;14.93;;;5.15;;
22778;SDS011;11556;51.194;3.800;2023-07-31T05:27:38;9.98;;;5.18;;
22778;SDS011;11556;51.194;3.800;2023-07-31T05:30:04;13.15;;;5.13;;
22778;SDS011;11556;51.194;3.800;2023-07-31T05:32:30;12.23;;;4.85;;
22778;SDS011;11556;51.194;3.800;2023-07-31T05:34:56;13.20;;;5.22;;
22778;SDS011;11556;51.194;3.800;2023-07-31T05:37:22;14.20;;;4.80;;
22778;SDS011;11556;51.194;3.800;2023-07-31T05:39:48;13.95;;;5.30;;
22778;SDS011;11556;51.194;3.800;2023-07-31T05:42:13;10.15;;;4.65;;
22778;SDS011;11556;51.194;3.800;2023-07-31T05:44:39;10.07;;;4.70;;
22778;SDS011;11556;51.194;3.800;2023-07-31T05:47:05;6.82;;;4.50;;
22778;SDS011;11556;51.194;3.800;2023-07-31T05:49:30;12.50;;;4.70;;
22778;SDS011;11556;51.194;3.800;2023-07-31T05:51:56;11.63;;;5.05;;
22778;SDS011;11556;51.194;3.800;2023-07-31T05:54:22;12.85;;;5.03;;
22778;SDS011;11556;51.194;3.800;2023-07-31T05:56:47;11.07;;;4.80;;
22778;SDS011;11556;51.194;3.800;2023-07-31T05:59:13;12.52;;;5.05;;
22778;SDS011;11556;51.194;3.800;2023-07-31T06:01:39;12.70;;;5.20;;
22778;SDS011;11556;51.194;3.800;2023-07-31T06:04:04;10.40;;;5.35;;
22778;SDS011;11556;51.194;3.800;2023-07-31T06:06:30;10.75;;;4.70;;
22778;SDS011;11556;51.194;3.800;2023-07-31T06:08:56;13.73;;;5.20;;
22778;SDS011;11556;51.194;3.800;2023-07-31T06:11:22;9.93;;;4.95;;
22778;SDS011;11556;51.194;3.800;2023-07-31T06:13:48;10.27;;;4.95;;
22778;SDS011;11556;51.194;3.800;2023-07-31T06:16:15;11.80;;;5.00;;
22778;SDS011;11556;51.194;3.800;2023-07-31T06:18:42;13.60;;;5.60;;
22778;SDS011;11556;51.194;3.800;2023-07-31T06:21:08;12.00;;;5.20;;
22778;SDS011;11556;51.194;3.800;2023-07-31T06:23:34;15.15;;;5.20;;
22778;SDS011;11556;51.194;3.800;2023-07-31T06:25:59;10.65;;;5.43;;
22778;SDS011;11556;51.194;3.800;2023-07-31T06:28:28;16.25;;;5.57;;
22778;SDS011;11556;51.194;3.800;2023-07-31T06:30:54;15.13;;;5.30;;
22778;SDS011;11556;51.194;3.800;2023-07-31T06:33:20;11.85;;;5.68;;
22778;SDS011;11556;51.194;3.800;2023-07-31T06:35:46;14.23;;;5.55;;
22778;SDS011;11556;51.194;3.800;2023-07-31T06:38:11;11.07;;;5.78;;
22778;SDS011;11556;51.194;3.800;2023-07-31T06:40:37;11.88;;;5.70;;
22778;SDS011;11556;51.194;3.800;2023-07-31T06:43:03;12.23;;;4.93;;
22778;SDS011;11556;51.194;3.800;2023-07-31T06:45:33;10.07;;;4.85;;
22778;SDS011;11556;51.194;3.800;2023-07-31T06:48:00;10.13;;;5.85;;
22778;SDS011;11556;51.194;3.800;2023-07-31T06:50:27;9.77;;;5.03;;
22778;SDS011;11556;51.194;3.800;2023-07-31T06:52:53;11.00;;;5.32;;
22778;SDS011;11556;51.194;3.800;2023-07-31T06:55:19;13.05;;;4.97;;
22778;SDS011;11556;51.194;3.800;2023-07-31T06:57:46;8.30;;;4.65;;
22778;SDS011;11556;51.194;3.800;2023-07-31T07:00:13;14.27;;;4.90;;
22778;SDS011;11556;51.194;3.800;2023-07-31T07:02:39;12.55;;;4.70;;
22778;SDS011;11556;51.194;3.800;2023-07-31T07:05:05;11.43;;;5.00;;
22778;SDS011;11556;51.194;3.800;2023-07-31T07:07:32;11.85;;;4.32;;
22778;SDS011;11556;51.194;3.800;2023-07-31T07:09:58;9.98;;;3.88;;
22778;SDS011;11556;51.194;3.800;2023-07-31T07:12:24;8.32;;;3.80;;
22778;SDS011;11556;51.194;3.800;2023-07-31T07:14:51;8.70;;;3.75;;
22778;SDS011;11556;51.194;3.800;2023-07-31T07:17:18;10.20;;;3.95;;
22778;SDS011;11556;51.194;3.800;2023-07-31T07:19:51;10.18;;;3.60;;
22778;SDS011;11556;51.194;3.800;2023-07-31T07:22:19;7.78;;;3.70;;
22778;SDS011;11556;51.194;3.800;2023-07-31T07:24:44;6.75;;;3.35;;
22778;SDS011;11556;51.194;3.800;2023-07-31T07:27:10;7.68;;;3.72;;
22778;SDS011;11556;51.194;3.800;2023-07-31T07:29:37;5.22;;;3.13;;
22778;SDS011;11556;51.194;3.800;2023-07-31T07:32:03;8.15;;;3.15;;
22778;SDS011;11556;51.194;3.800;2023-07-31T07:34:30;7.22;;;3.15;;
22778;SDS011;11556;51.194;3.800;2023-07-31T07:36:55;6.75;;;2.85;;
22778;SDS011;11556;51.194;3.800;2023-07-31T07:39:21;7.47;;;2.83;;
22778;SDS011;11556;51.194;3.800;2023-07-31T07:41:47;5.60;;;2.80;;
22778;SDS011;11556;51.194;3.800;2023-07-31T07:44:12;11.50;;;3.08;;
22778;SDS011;11556;51.194;3.800;2023-07-31T07:46:39;7.20;;;2.97;;
22778;SDS011;11556;51.194;3.800;2023-07-31T07:49:05;5.30;;;2.97;;
22778;SDS011;11556;51.194;3.800;2023-07-31T07:51:31;4.25;;;2.90;;
22778;SDS011;11556;51.194;3.800;2023-07-31T07:53:57;6.32;;;2.70;;
22778;SDS011;11556;51.194;3.800;2023-07-31T07:56:25;3.85;;;2.83;;
22778;SDS011;11556;51.194;3.800;2023-07-31T07:58:51;5.28;;;2.63;;
22778;SDS011;11556;51.194;3.800;2023-07-31T08:01:17;4.50;;;2.70;;
22778;SDS011;11556;51.194;3.800;2023-07-31T08:03:42;6.72;;;2.60;;
22778;SDS011;11556;51.194;3.800;2023-07-31T08:06:08;5.18;;;2.47;;
22778;SDS011;11556;51.194;3.800;2023-07-31T08:08:34;4.63;;;2.78;;
22778;SDS011;11556;51.194;3.800;2023-07-31T08:11:01;7.32;;;3.25;;
22778;SDS011;11556;51.194;3.800;2023-07-31T08:13:26;5.38;;;2.47;;
22778;SDS011;11556;51.194;3.800;2023-07-31T08:15:52;4.85;;;2.70;;
22778;SDS011;11556;51.194;3.800;2023-07-31T08:18:18;7.35;;;2.58;;
22778;SDS011;11556;51.194;3.800;2023-07-31T08:20:44;3.80;;;2.25;;
22778;SDS011;11556;51.194;3.800;2023-07-31T08:23:09;8.70;;;2.70;;
22778;SDS011;11556;51.194;3.800;2023-07-31T08:25:35;4.80;;;2.70;;
22778;SDS011;11556;51.194;3.800;2023-07-31T08:28:01;4.63;;;2.30;;
22778;SDS011;11556;51.194;3.800;2023-07-31T08:30:28;3.90;;;1.92;;
22778;SDS011;11556;51.194;3.800;2023-07-31T08:32:54;3.33;;;2.10;;
22778;SDS011;11556;51.194;3.800;2023-07-31T08:35:19;4.05;;;2.05;;
22778;SDS011;11556;51.194;3.800;2023-07-31T08:37:45;4.10;;;1.88;;
22778;SDS011;11556;51.194;3.800;2023-07-31T08:40:11;2.92;;;1.83;;
22778;SDS011;11556;51.194;3.800;2023-07-31T08:42:46;2.10;;;1.80;;
22778;SDS011;11556;51.194;3.800;2023-07-31T08:45:14;3.00;;;1.88;;
22778;SDS011;11556;51.194;3.800;2023-07-31T08:47:47;2.20;;;1.67;;
22778;SDS011;11556;51.194;3.800;2023-07-31T08:50:17;3.22;;;2.00;;
22778;SDS011;11556;51.194;3.800;2023-07-31T08:52:45;4.07;;;1.75;;
22778;SDS011;11556;51.194;3.800;2023-07-31T08:55:11;2.45;;;1.60;;
22778;SDS011;11556;51.194;3.800;2023-07-31T08:57:37;3.28;;;1.75;;
22778;SDS011;11556;51.194;3.800;2023-07-31T09:00:05;3.83;;;1.50;;
22778;SDS011;11556;51.194;3.800;2023-07-31T09:02:41;4.20;;;1.83;;
22778;SDS011;11556;51.194;3.800;2023-07-31T09:05:10;3.22;;;1.88;;
22778;SDS011;11556;51.194;3.800;2023-07-31T09:07:36;3.22;;;1.80;;
22778;SDS011;11556;51.194;3.800;2023-07-31T09:10:03;3.30;;;1.60;;
22778;SDS011;11556;51.194;3.800;2023-07-31T09:12:29;2.00;;;1.58;;
22778;SDS011;11556;51.194;3.800;2023-07-31T09:14:56;6.38;;;1.80;;
22778;SDS011;11556;51.194;3.800;2023-07-31T09:17:32;2.90;;;1.90;;
22778;SDS011;11556;51.194;3.800;2023-07-31T09:20:19;2.47;;;1.63;;
22778;SDS011;11556;51.194;3.800;2023-07-31T09:22:46;3.17;;;1.75;;
22778;SDS011;11556;51.194;3.800;2023-07-31T09:25:22;1.65;;;1.55;;
22778;SDS011;11556;51.194;3.800;2023-07-31T09:27:53;2.15;;;1.70;;
22778;SDS011;11556;51.194;3.800;2023-07-31T09:30:19;2.33;;;1.95;;
22778;SDS011;11556;51.194;3.800;2023-07-31T09:32:46;6.40;;;2.00;;
22778;SDS011;11556;51.194;3.800;2023-07-31T09:37:52;3.38;;;2.10;;
22778;SDS011;11556;51.194;3.800;2023-07-31T09:43:21;2.53;;;2.00;;
22778;SDS011;11556;51.194;3.800;2023-07-31T09:45:47;5.75;;;2.10;;
22778;SDS011;11556;51.194;3.800;2023-07-31T09:48:14;2.58;;;1.90;;
22778;SDS011;11556;51.194;3.800;2023-07-31T09:50:41;2.47;;;2.28;;
22778;SDS011;11556;51.194;3.800;2023-07-31T09:53:08;2.78;;;2.25;;
22778;SDS011;11556;51.194;3.800;2023-07-31T09:55:35;3.70;;;2.20;;
22778;SDS011;11556;51.194;3.800;2023-07-31T09:58:11;3.05;;;2.25;;
22778;SDS011;11556;51.194;3.800;2023-07-31T10:00:38;4.70;;;2.28;;
22778;SDS011;11556;51.194;3.800;2023-07-31T10:03:04;3.53;;;2.35;;
22778;SDS011;11556;51.194;3.800;2023-07-31T10:05:39;4.80;;;2.47;;
22778;SDS011;11556;51.194;3.800;2023-07-31T10:08:08;3.33;;;2.70;;
22778;SDS011;11556;51.194;3.800;2023-07-31T10:10:38;3.08;;;2.60;;
22778;SDS011;11556;51.194;3.800;2023-07-31T10:13:07;4.63;;;3.00;;
22778;SDS011;11556;51.194;3.800;2023-07-31T10:15:34;3.20;;;2.88;;
22778;SDS011;11556;51.194;3.800;2023-07-31T10:18:00;5.70;;;3.20;;
22778;SDS011;11556;51.194;3.800;2023-07-31T10:20:27;3.70;;;2.95;;
22778;SDS011;11556;51.194;3.800;2023-07-31T10:22:54;3.38;;;3.03;;
22778;SDS011;11556;51.194;3.800;2023-07-31T10:25:21;6.30;;;3.45;;
22778;SDS011;11556;51.194;3.800;2023-07-31T10:27:47;5.78;;;3.17;;
22778;SDS011;11556;51.194;3.800;2023-07-31T10:30:15;5.45;;;3.63;;
22778;SDS011;11556;51.194;3.800;2023-07-31T10:32:44;3.50;;;2.95;;
22778;SDS011;11556;51.194;3.800;2023-07-31T10:35:10;6.35;;;3.25;;
22778;SDS011;11556;51.194;3.800;2023-07-31T10:40:05;4.90;;;2.80;;
22778;SDS011;11556;51.194;3.800;2023-07-31T10:42:33;3.35;;;2.63;;
22778;SDS011;11556;51.194;3.800;2023-07-31T10:45:05;5.07;;;2.63;;
22778;SDS011;11556;51.194;3.800;2023-07-31T10:47:39;4.40;;;2.53;;
22778;SDS011;11556;51.194;3.800;2023-07-31T10:50:16;2.88;;;2.28;;
22778;SDS011;11556;51.194;3.800;2023-07-31T10:52:46;4.88;;;2.65;;
22778;SDS011;11556;51.194;3.800;2023-07-31T10:58:05;5.68;;;3.30;;
22778;SDS011;11556;51.194;3.800;2023-07-31T11:00:31;5.28;;;3.55;;
22778;SDS011;11556;51.194;3.800;2023-07-31T11:02:58;5.57;;;3.30;;
22778;SDS011;11556;51.194;3.800;2023-07-31T11:05:45;4.88;;;3.10;;
22778;SDS011;11556;51.194;3.800;2023-07-31T11:08:12;7.93;;;3.38;;
22778;SDS011;11556;51.194;3.800;2023-07-31T11:10:38;5.47;;;3.42;;
22778;SDS011;11556;51.194;3.800;2023-07-31T11:13:04;4.70;;;3.40;;
22778;SDS011;11556;51.194;3.800;2023-07-31T11:15:30;5.22;;;3.30;;
22778;SDS011;11556;51.194;3.800;2023-07-31T11:17:56;3.95;;;2.80;;
22778;SDS011;11556;51.194;3.800;2023-07-31T11:20:25;9.25;;;3.70;;
22778;SDS011;11556;51.194;3.800;2023-07-31T11:22:50;4.28;;;3.00;;
22778;SDS011;11556;51.194;3.800;2023-07-31T11:25:16;4.53;;;3.20;;
22778;SDS011;11556;51.194;3.800;2023-07-31T11:27:43;5.65;;;3.25;;
22778;SDS011;11556;51.194;3.800;2023-07-31T11:30:10;5.47;;;2.97;;
22778;SDS011;11556;51.194;3.800;2023-07-31T11:32:36;4.05;;;2.70;;
22778;SDS011;11556;51.194;3.800;2023-07-31T11:35:02;5.18;;;2.53;;
22778;SDS011;11556;51.194;3.800;2023-07-31T11:37:40;5.63;;;3.00;;
22778;SDS011;11556;51.194;3.800;2023-07-31T11:40:07;4.85;;;3.08;;
22778;SDS011;11556;51.194;3.800;2023-07-31T11:42:34;5.30;;;3.45;;
22778;SDS011;11556;51.194;3.800;2023-07-31T11:45:03;7.47;;;2.83;;
22778;SDS011;11556;51.194;3.800;2023-07-31T11:47:32;4.65;;;2.95;;
22778;SDS011;11556;51.194;3.800;2023-07-31T11:50:05;5.67;;;3.00;;
22778;SDS011;11556;51.194;3.800;2023-07-31T11:52:33;5.65;;;3.22;;
22778;SDS011;11556;51.194;3.800;2023-07-31T11:55:09;5.82;;;3.28;;
22778;SDS011;11556;51.194;3.800;2023-07-31T11:57:37;5.78;;;2.90;;
22778;SDS011;11556;51.194;3.800;2023-07-31T12:00:05;5.53;;;2.38;;
22778;SDS011;11556;51.194;3.800;2023-07-31T12:02:33;3.60;;;2.83;;
22778;SDS011;11556;51.194;3.800;2023-07-31T12:04:59;7.40;;;2.72;;
22778;SDS011;11556;51.194;3.800;2023-07-31T12:07:25;6.13;;;3.08;;
22778;SDS011;11556;51.194;3.800;2023-07-31T12:09:51;7.63;;;2.60;;
22778;SDS011;11556;51.194;3.800;2023-07-31T12:12:21;6.00;;;2.80;;
22778;SDS011;11556;51.194;3.800;2023-07-31T12:14:50;5.40;;;2.60;;
22778;SDS011;11556;51.194;3.800;2023-07-31T12:17:17;5.65;;;2.78;;
22778;SDS011;11556;51.194;3.800;2023-07-31T12:19:45;3.53;;;2.75;;
22778;SDS011;11556;51.194;3.800;2023-07-31T12:22:13;5.35;;;2.67;;
22778;SDS011;11556;51.194;3.800;2023-07-31T12:24:41;6.03;;;2.72;;
22778;SDS011;11556;51.194;3.800;2023-07-31T12:27:13;5.38;;;3.25;;
22778;SDS011;11556;51.194;3.800;2023-07-31T12:29:41;7.22;;;3.22;;
22778;SDS011;11556;51.194;3.800;2023-07-31T12:32:21;7.60;;;3.95;;
22778;SDS011;11556;51.194;3.800;2023-07-31T12:34:49;6.93;;;3.70;;
22778;SDS011;11556;51.194;3.800;2023-07-31T12:37:15;7.72;;;4.45;;
22778;SDS011;11556;51.194;3.800;2023-07-31T12:39:41;8.80;;;4.88;;
22778;SDS011;11556;51.194;3.800;2023-07-31T12:42:07;8.93;;;5.15;;
22778;SDS011;11556;51.194;3.800;2023-07-31T12:44:33;7.35;;;5.20;;
22778;SDS011;11556;51.194;3.800;2023-07-31T12:46:58;9.60;;;5.18;;
22778;SDS011;11556;51.194;3.800;2023-07-31T12:49:24;9.25;;;4.90;;
22778;SDS011;11556;51.194;3.800;2023-07-31T12:51:50;9.55;;;5.50;;
22778;SDS011;11556;51.194;3.800;2023-07-31T12:54:15;7.95;;;5.22;;
22778;SDS011;11556;51.194;3.800;2023-07-31T12:56:41;13.45;;;5.28;;
22778;SDS011;11556;51.194;3.800;2023-07-31T12:59:07;11.13;;;6.00;;
22778;SDS011;11556;51.194;3.800;2023-07-31T13:01:32;8.73;;;5.50;;
22778;SDS011;11556;51.194;3.800;2023-07-31T13:03:58;10.40;;;5.47;;
22778;SDS011;11556;51.194;3.800;2023-07-31T13:06:24;11.60;;;5.30;;
22778;SDS011;11556;51.194;3.800;2023-07-31T13:08:50;9.55;;;5.60;;
22778;SDS011;11556;51.194;3.800;2023-07-31T13:11:16;9.68;;;5.40;;
22778;SDS011;11556;51.194;3.800;2023-07-31T13:13:42;6.28;;;4.15;;
22778;SDS011;11556;51.194;3.800;2023-07-31T13:16:07;6.78;;;4.00;;
22778;SDS011;11556;51.194;3.800;2023-07-31T13:18:33;5.70;;;4.05;;
22778;SDS011;11556;51.194;3.800;2023-07-31T13:20:59;5.85;;;3.85;;
22778;SDS011;11556;51.194;3.800;2023-07-31T13:23:24;5.22;;;3.65;;
22778;SDS011;11556;51.194;3.800;2023-07-31T13:25:50;10.32;;;3.85;;
22778;SDS011;11556;51.194;3.800;2023-07-31T13:28:15;6.63;;;3.28;;
22778;SDS011;11556;51.194;3.800;2023-07-31T13:30:41;5.88;;;3.53;;
22778;SDS011;11556;51.194;3.800;2023-07-31T13:33:07;4.82;;;3.15;;
22778;SDS011;11556;51.194;3.800;2023-07-31T13:35:32;3.63;;;2.75;;
22778;SDS011;11556;51.194;3.800;2023-07-31T13:37:58;5.00;;;2.60;;
22778;SDS011;11556;51.194;3.800;2023-07-31T13:40:24;5.90;;;2.22;;
22778;SDS011;11556;51.194;3.800;2023-07-31T13:42:49;4.10;;;2.50;;
22778;SDS011;11556;51.194;3.800;2023-07-31T13:45:15;7.45;;;2.60;;
22778;SDS011;11556;51.194;3.800;2023-07-31T13:47:40;2.65;;;1.80;;
22778;SDS011;11556;51.194;3.800;2023-07-31T13:50:06;3.95;;;2.00;;
22778;SDS011;11556;51.194;3.800;2023-07-31T13:52:32;2.20;;;1.67;;
22778;SDS011;11556;51.194;3.800;2023-07-31T13:54:58;1.77;;;1.58;;
22778;SDS011;11556;51.194;3.800;2023-07-31T13:57:23;3.35;;;1.98;;
22778;SDS011;11556;51.194;3.800;2023-07-31T13:59:49;5.50;;;2.80;;
22778;SDS011;11556;51.194;3.800;2023-07-31T14:02:15;4.22;;;3.47;;
22778;SDS011;11556;51.194;3.800;2023-07-31T14:04:40;6.25;;;3.03;;
22778;SDS011;11556;51.194;3.800;2023-07-31T14:07:06;4.07;;;2.97;;
22778;SDS011;11556;51.194;3.800;2023-07-31T14:09:32;3.55;;;2.50;;
22778;SDS011;11556;51.194;3.800;2023-07-31T14:11:57;3.05;;;2.33;;
22778;SDS011;11556;51.194;3.800;2023-07-31T14:14:23;3.63;;;2.60;;
22778;SDS011;11556;51.194;3.800;2023-07-31T14:16:49;3.28;;;2.67;;
22778;SDS011;11556;51.194;3.800;2023-07-31T14:19:14;4.97;;;3.17;;
22778;SDS011;11556;51.194;3.800;2023-07-31T14:21:40;3.80;;;3.28;;
22778;SDS011;11556;51.194;3.800;2023-07-31T14:24:06;5.97;;;3.22;;
22778;SDS011;11556;51.194;3.800;2023-07-31T14:26:31;3.40;;;3.03;;
22778;SDS011;11556;51.194;3.800;2023-07-31T14:28:58;6.88;;;3.70;;
22778;SDS011;11556;51.194;3.800;2023-07-31T14:31:24;4.90;;;3.10;;
22778;SDS011;11556;51.194;3.800;2023-07-31T14:33:51;4.57;;;3.30;;
22778;SDS011;11556;51.194;3.800;2023-07-31T14:36:16;5.72;;;3.67;;
22778;SDS011;11556;51.194;3.800;2023-07-31T14:38:42;5.32;;;3.70;;
22778;SDS011;11556;51.194;3.800;2023-07-31T14:41:08;8.20;;;3.88;;
22778;SDS011;11556;51.194;3.800;2023-07-31T14:43:33;5.20;;;3.47;;
22778;SDS011;11556;51.194;3.800;2023-07-31T14:45:59;6.35;;;3.60;;
22778;SDS011;11556;51.194;3.800;2023-07-31T14:48:25;4.90;;;3.10;;
22778;SDS011;11556;51.194;3.800;2023-07-31T14:50:52;5.57;;;3.47;;
22778;SDS011;11556;51.194;3.800;2023-07-31T14:53:18;4.68;;;2.60;;
22778;SDS011;11556;51.194;3.800;2023-07-31T14:55:43;4.72;;;2.50;;
22778;SDS011;11556;51.194;3.800;2023-07-31T14:58:09;3.20;;;2.25;;